sensor_id;sensor_type;location;lat;lon;timestamp;P1;durP1;ratioP1;P2;durP2;ratioP2
49860;SDS011;35761;48.826;9.238;2022-12-13T00:01:52;33.20;;;15.73;;
49860;SDS011;35761;48.826;9.238;2022-12-13T00:04:22;30.38;;;15.15;;
49860;SDS011;35761;48.826;9.238;2022-12-13T00:06:51;31.42;;;15.45;;
49860;SDS011;35761;48.826;9.238;2022-12-13T00:09:20;32.92;;;15.88;;
49860;SDS011;35761;48.826;9.238;2022-12-13T00:11:50;34.38;;;16.50;;
49860;SDS011;35761;48.826;9.238;2022-12-13T00:14:20;31.60;;;15.30;;
49860;SDS011;35761;48.826;9.238;2022-12-13T00:16:49;31.55;;;17.23;;
49860;SDS011;35761;48.826;9.238;2022-12-13T00:19:18;31.88;;;15.68;;
49860;SDS011;35761;48.826;9.238;2022-12-13T00:21:49;33.97;;;16.73;;
49860;SDS011;35761;48.826;9.238;2022-12-13T00:24:18;33.92;;;16.13;;
49860;SDS011;35761;48.826;9.238;2022-12-13T00:26:49;34.08;;;17.08;;
49860;SDS011;35761;48.826;9.238;2022-12-13T00:29:20;34.97;;;16.08;;
49860;SDS011;35761;48.826;9.238;2022-12-13T00:31:49;29.23;;;16.05;;
49860;SDS011;35761;48.826;9.238;2022-12-13T00:34:26;34.47;;;16.70;;
49860;SDS011;35761;48.826;9.238;2022-12-13T00:36:55;37.20;;;16.33;;
49860;SDS011;35761;48.826;9.238;2022-12-13T00:39:30;33.20;;;16.88;;
49860;SDS011;35761;48.826;9.238;2022-12-13T00:42:00;33.53;;;16.40;;
49860;SDS011;35761;48.826;9.238;2022-12-13T00:44:28;33.88;;;15.15;;
49860;SDS011;35761;48.826;9.238;2022-12-13T00:46:58;30.88;;;16.52;;
49860;SDS011;35761;48.826;9.238;2022-12-13T00:49:26;30.92;;;16.10;;
49860;SDS011;35761;48.826;9.238;2022-12-13T00:51:55;31.60;;;16.52;;
49860;SDS011;35761;48.826;9.238;2022-12-13T00:54:24;36.60;;;15.50;;
49860;SDS011;35761;48.826;9.238;2022-12-13T00:56:52;37.55;;;17.45;;
49860;SDS011;35761;48.826;9.238;2022-12-13T00:59:23;36.67;;;17.55;;
49860;SDS011;35761;48.826;9.238;2022-12-13T01:01:51;33.63;;;16.98;;
49860;SDS011;35761;48.826;9.238;2022-12-13T01:04:20;29.85;;;15.85;;
49860;SDS011;35761;48.826;9.238;2022-12-13T01:06:49;31.63;;;16.90;;
49860;SDS011;35761;48.826;9.238;2022-12-13T01:09:18;33.60;;;16.13;;
49860;SDS011;35761;48.826;9.238;2022-12-13T01:11:47;32.55;;;16.60;;
49860;SDS011;35761;48.826;9.238;2022-12-13T01:14:17;30.92;;;16.92;;
49860;SDS011;35761;48.826;9.238;2022-12-13T01:16:47;46.80;;;16.80;;
49860;SDS011;35761;48.826;9.238;2022-12-13T01:19:16;35.67;;;17.38;;
49860;SDS011;35761;48.826;9.238;2022-12-13T01:21:44;30.58;;;15.82;;
49860;SDS011;35761;48.826;9.238;2022-12-13T01:24:13;37.63;;;18.40;;
49860;SDS011;35761;48.826;9.238;2022-12-13T01:26:46;37.30;;;18.15;;
49860;SDS011;35761;48.826;9.238;2022-12-13T01:29:15;35.97;;;17.25;;
49860;SDS011;35761;48.826;9.238;2022-12-13T01:31:44;36.35;;;17.48;;
49860;SDS011;35761;48.826;9.238;2022-12-13T01:34:15;32.67;;;16.38;;
49860;SDS011;35761;48.826;9.238;2022-12-13T01:36:45;33.47;;;17.52;;
49860;SDS011;35761;48.826;9.238;2022-12-13T01:39:15;34.42;;;17.58;;
49860;SDS011;35761;48.826;9.238;2022-12-13T01:41:52;37.33;;;16.20;;
49860;SDS011;35761;48.826;9.238;2022-12-13T01:47:24;33.47;;;16.10;;
49860;SDS011;35761;48.826;9.238;2022-12-13T01:49:56;35.95;;;17.08;;
49860;SDS011;35761;48.826;9.238;2022-12-13T01:52:27;32.60;;;16.40;;
49860;SDS011;35761;48.826;9.238;2022-12-13T01:54:57;32.63;;;16.40;;
49860;SDS011;35761;48.826;9.238;2022-12-13T01:57:29;34.85;;;16.80;;
49860;SDS011;35761;48.826;9.238;2022-12-13T01:59:59;35.22;;;18.00;;
49860;SDS011;35761;48.826;9.238;2022-12-13T02:02:32;38.13;;;16.63;;
49860;SDS011;35761;48.826;9.238;2022-12-13T02:05:04;33.28;;;17.52;;
49860;SDS011;35761;48.826;9.238;2022-12-13T02:07:35;32.35;;;16.15;;
49860;SDS011;35761;48.826;9.238;2022-12-13T02:10:05;35.20;;;17.08;;
49860;SDS011;35761;48.826;9.238;2022-12-13T02:12:35;33.30;;;16.95;;
49860;SDS011;35761;48.826;9.238;2022-12-13T02:15:08;38.35;;;17.67;;
49860;SDS011;35761;48.826;9.238;2022-12-13T02:17:43;31.48;;;16.92;;
49860;SDS011;35761;48.826;9.238;2022-12-13T02:20:39;39.53;;;18.10;;
49860;SDS011;35761;48.826;9.238;2022-12-13T02:26:44;35.65;;;16.58;;
49860;SDS011;35761;48.826;9.238;2022-12-13T02:29:38;32.72;;;16.35;;
49860;SDS011;35761;48.826;9.238;2022-12-13T02:32:28;34.75;;;17.10;;
49860;SDS011;35761;48.826;9.238;2022-12-13T02:37:31;35.50;;;16.60;;
49860;SDS011;35761;48.826;9.238;2022-12-13T02:40:04;37.03;;;17.40;;
49860;SDS011;35761;48.826;9.238;2022-12-13T02:42:36;34.13;;;16.88;;
49860;SDS011;35761;48.826;9.238;2022-12-13T02:45:10;26.10;;;13.52;;
49860;SDS011;35761;48.826;9.238;2022-12-13T02:47:47;34.33;;;16.77;;
49860;SDS011;35761;48.826;9.238;2022-12-13T02:50:17;32.20;;;17.33;;
49860;SDS011;35761;48.826;9.238;2022-12-13T02:52:46;30.88;;;17.02;;
49860;SDS011;35761;48.826;9.238;2022-12-13T02:55:15;36.92;;;17.02;;
49860;SDS011;35761;48.826;9.238;2022-12-13T02:57:49;32.28;;;16.50;;
49860;SDS011;35761;48.826;9.238;2022-12-13T03:00:19;30.35;;;16.20;;
49860;SDS011;35761;48.826;9.238;2022-12-13T03:02:55;33.00;;;16.15;;
49860;SDS011;35761;48.826;9.238;2022-12-13T03:05:35;36.53;;;17.05;;
49860;SDS011;35761;48.826;9.238;2022-12-13T03:08:26;33.88;;;17.10;;
49860;SDS011;35761;48.826;9.238;2022-12-13T03:11:02;34.38;;;17.70;;
49860;SDS011;35761;48.826;9.238;2022-12-13T03:13:33;33.75;;;17.90;;
49860;SDS011;35761;48.826;9.238;2022-12-13T03:16:08;34.50;;;16.50;;
49860;SDS011;35761;48.826;9.238;2022-12-13T03:18:50;34.47;;;18.08;;
49860;SDS011;35761;48.826;9.238;2022-12-13T03:21:20;34.88;;;16.88;;
49860;SDS011;35761;48.826;9.238;2022-12-13T03:23:49;34.97;;;16.92;;
49860;SDS011;35761;48.826;9.238;2022-12-13T03:26:19;36.50;;;17.60;;
49860;SDS011;35761;48.826;9.238;2022-12-13T03:28:49;35.30;;;17.80;;
49860;SDS011;35761;48.826;9.238;2022-12-13T03:31:19;35.55;;;18.00;;
49860;SDS011;35761;48.826;9.238;2022-12-13T03:33:48;37.00;;;17.20;;
49860;SDS011;35761;48.826;9.238;2022-12-13T03:36:18;33.40;;;16.40;;
49860;SDS011;35761;48.826;9.238;2022-12-13T03:38:47;35.28;;;17.30;;
49860;SDS011;35761;48.826;9.238;2022-12-13T03:41:18;36.00;;;17.25;;
49860;SDS011;35761;48.826;9.238;2022-12-13T03:43:48;35.25;;;18.30;;
49860;SDS011;35761;48.826;9.238;2022-12-13T03:46:17;33.42;;;16.95;;
49860;SDS011;35761;48.826;9.238;2022-12-13T03:48:46;35.40;;;17.15;;
49860;SDS011;35761;48.826;9.238;2022-12-13T03:51:15;34.38;;;16.48;;
49860;SDS011;35761;48.826;9.238;2022-12-13T03:53:45;40.45;;;19.58;;
49860;SDS011;35761;48.826;9.238;2022-12-13T03:56:13;36.72;;;17.00;;
49860;SDS011;35761;48.826;9.238;2022-12-13T03:58:42;42.53;;;17.73;;
49860;SDS011;35761;48.826;9.238;2022-12-13T04:01:11;36.45;;;16.67;;
49860;SDS011;35761;48.826;9.238;2022-12-13T04:03:41;33.92;;;16.52;;
49860;SDS011;35761;48.826;9.238;2022-12-13T04:06:11;32.92;;;16.35;;
49860;SDS011;35761;48.826;9.238;2022-12-13T04:08:50;40.17;;;19.13;;
49860;SDS011;35761;48.826;9.238;2022-12-13T04:11:19;38.47;;;19.02;;
49860;SDS011;35761;48.826;9.238;2022-12-13T04:14:08;37.03;;;18.15;;
49860;SDS011;35761;48.826;9.238;2022-12-13T04:16:48;34.03;;;16.67;;
49860;SDS011;35761;48.826;9.238;2022-12-13T04:19:18;36.53;;;18.73;;
49860;SDS011;35761;48.826;9.238;2022-12-13T04:21:49;41.17;;;18.40;;
49860;SDS011;35761;48.826;9.238;2022-12-13T04:24:21;32.08;;;17.00;;
49860;SDS011;35761;48.826;9.238;2022-12-13T04:26:57;35.28;;;17.08;;
49860;SDS011;35761;48.826;9.238;2022-12-13T04:29:26;34.75;;;16.65;;
49860;SDS011;35761;48.826;9.238;2022-12-13T04:32:00;37.33;;;19.30;;
49860;SDS011;35761;48.826;9.238;2022-12-13T04:34:29;37.97;;;18.92;;
49860;SDS011;35761;48.826;9.238;2022-12-13T04:37:03;40.35;;;17.90;;
49860;SDS011;35761;48.826;9.238;2022-12-13T04:39:33;36.65;;;17.75;;
49860;SDS011;35761;48.826;9.238;2022-12-13T04:42:02;31.50;;;17.30;;
49860;SDS011;35761;48.826;9.238;2022-12-13T04:44:31;32.72;;;17.33;;
49860;SDS011;35761;48.826;9.238;2022-12-13T04:47:02;37.63;;;19.55;;
49860;SDS011;35761;48.826;9.238;2022-12-13T04:49:32;41.63;;;20.27;;
49860;SDS011;35761;48.826;9.238;2022-12-13T04:52:01;41.92;;;18.65;;
49860;SDS011;35761;48.826;9.238;2022-12-13T04:54:30;35.75;;;18.25;;
49860;SDS011;35761;48.826;9.238;2022-12-13T04:57:04;38.42;;;19.25;;
49860;SDS011;35761;48.826;9.238;2022-12-13T04:59:35;43.17;;;19.38;;
49860;SDS011;35761;48.826;9.238;2022-12-13T05:02:04;39.85;;;18.60;;
49860;SDS011;35761;48.826;9.238;2022-12-13T05:04:34;35.13;;;17.27;;
49860;SDS011;35761;48.826;9.238;2022-12-13T05:07:02;34.97;;;17.88;;
49860;SDS011;35761;48.826;9.238;2022-12-13T05:09:31;29.50;;;15.48;;
49860;SDS011;35761;48.826;9.238;2022-12-13T05:12:00;34.25;;;16.70;;
49860;SDS011;35761;48.826;9.238;2022-12-13T05:14:30;33.00;;;16.50;;
49860;SDS011;35761;48.826;9.238;2022-12-13T05:16:59;31.48;;;16.75;;
49860;SDS011;35761;48.826;9.238;2022-12-13T05:19:29;34.92;;;16.45;;
49860;SDS011;35761;48.826;9.238;2022-12-13T05:21:58;31.45;;;16.15;;
49860;SDS011;35761;48.826;9.238;2022-12-13T05:24:28;33.38;;;17.05;;
49860;SDS011;35761;48.826;9.238;2022-12-13T05:26:57;29.65;;;16.10;;
49860;SDS011;35761;48.826;9.238;2022-12-13T05:29:26;32.88;;;15.93;;
49860;SDS011;35761;48.826;9.238;2022-12-13T05:31:56;34.03;;;17.15;;
49860;SDS011;35761;48.826;9.238;2022-12-13T05:34:25;31.17;;;16.35;;
49860;SDS011;35761;48.826;9.238;2022-12-13T05:36:54;34.85;;;15.93;;
49860;SDS011;35761;48.826;9.238;2022-12-13T05:39:23;31.80;;;15.75;;
49860;SDS011;35761;48.826;9.238;2022-12-13T05:41:55;32.67;;;16.58;;
49860;SDS011;35761;48.826;9.238;2022-12-13T05:44:28;34.60;;;16.60;;
49860;SDS011;35761;48.826;9.238;2022-12-13T05:46:59;36.92;;;17.05;;
49860;SDS011;35761;48.826;9.238;2022-12-13T05:49:29;32.85;;;17.02;;
49860;SDS011;35761;48.826;9.238;2022-12-13T05:51:57;29.35;;;15.77;;
49860;SDS011;35761;48.826;9.238;2022-12-13T05:54:26;32.60;;;16.77;;
49860;SDS011;35761;48.826;9.238;2022-12-13T05:56:55;31.60;;;15.75;;
49860;SDS011;35761;48.826;9.238;2022-12-13T05:59:24;29.92;;;15.93;;
49860;SDS011;35761;48.826;9.238;2022-12-13T06:01:52;42.00;;;20.65;;
49860;SDS011;35761;48.826;9.238;2022-12-13T06:04:23;50.55;;;24.88;;
49860;SDS011;35761;48.826;9.238;2022-12-13T06:06:51;37.33;;;19.40;;
49860;SDS011;35761;48.826;9.238;2022-12-13T06:09:20;38.85;;;17.10;;
49860;SDS011;35761;48.826;9.238;2022-12-13T06:11:49;37.38;;;19.35;;
49860;SDS011;35761;48.826;9.238;2022-12-13T06:14:26;41.67;;;20.80;;
49860;SDS011;35761;48.826;9.238;2022-12-13T06:16:55;33.00;;;16.63;;
49860;SDS011;35761;48.826;9.238;2022-12-13T06:19:25;34.95;;;17.40;;
49860;SDS011;35761;48.826;9.238;2022-12-13T06:21:54;36.28;;;17.35;;
49860;SDS011;35761;48.826;9.238;2022-12-13T06:24:23;32.95;;;16.23;;
49860;SDS011;35761;48.826;9.238;2022-12-13T06:26:52;30.23;;;15.75;;
49860;SDS011;35761;48.826;9.238;2022-12-13T06:29:21;39.03;;;16.67;;
49860;SDS011;35761;48.826;9.238;2022-12-13T06:31:52;36.60;;;18.23;;
49860;SDS011;35761;48.826;9.238;2022-12-13T06:34:31;36.15;;;17.05;;
49860;SDS011;35761;48.826;9.238;2022-12-13T06:37:01;35.03;;;16.60;;
49860;SDS011;35761;48.826;9.238;2022-12-13T06:39:32;39.90;;;19.05;;
49860;SDS011;35761;48.826;9.238;2022-12-13T06:42:01;37.38;;;18.75;;
49860;SDS011;35761;48.826;9.238;2022-12-13T06:44:32;32.85;;;15.55;;
49860;SDS011;35761;48.826;9.238;2022-12-13T06:47:02;33.88;;;17.70;;
49860;SDS011;35761;48.826;9.238;2022-12-13T06:52:11;34.65;;;17.98;;
49860;SDS011;35761;48.826;9.238;2022-12-13T06:54:40;33.00;;;16.73;;
49860;SDS011;35761;48.826;9.238;2022-12-13T06:57:09;31.90;;;15.88;;
49860;SDS011;35761;48.826;9.238;2022-12-13T06:59:38;35.60;;;16.25;;
49860;SDS011;35761;48.826;9.238;2022-12-13T07:02:08;32.88;;;16.00;;
49860;SDS011;35761;48.826;9.238;2022-12-13T07:04:53;37.60;;;14.88;;
49860;SDS011;35761;48.826;9.238;2022-12-13T07:07:22;36.78;;;16.33;;
49860;SDS011;35761;48.826;9.238;2022-12-13T07:09:52;32.40;;;16.20;;
49860;SDS011;35761;48.826;9.238;2022-12-13T07:12:21;32.95;;;15.35;;
49860;SDS011;35761;48.826;9.238;2022-12-13T07:14:50;32.00;;;15.93;;
49860;SDS011;35761;48.826;9.238;2022-12-13T07:17:20;33.60;;;15.88;;
49860;SDS011;35761;48.826;9.238;2022-12-13T07:20:02;37.60;;;16.15;;
49860;SDS011;35761;48.826;9.238;2022-12-13T07:22:34;34.45;;;16.75;;
49860;SDS011;35761;48.826;9.238;2022-12-13T07:25:12;34.63;;;15.77;;
49860;SDS011;35761;48.826;9.238;2022-12-13T07:27:54;39.33;;;17.50;;
49860;SDS011;35761;48.826;9.238;2022-12-13T07:30:28;33.75;;;16.48;;
49860;SDS011;35761;48.826;9.238;2022-12-13T07:32:57;36.75;;;17.30;;
49860;SDS011;35761;48.826;9.238;2022-12-13T07:35:28;37.55;;;16.80;;
49860;SDS011;35761;48.826;9.238;2022-12-13T07:38:04;35.10;;;17.85;;
49860;SDS011;35761;48.826;9.238;2022-12-13T07:40:33;36.55;;;16.17;;
49860;SDS011;35761;48.826;9.238;2022-12-13T07:43:02;33.78;;;16.85;;
49860;SDS011;35761;48.826;9.238;2022-12-13T07:45:31;34.83;;;16.45;;
49860;SDS011;35761;48.826;9.238;2022-12-13T07:48:02;34.75;;;16.90;;
49860;SDS011;35761;48.826;9.238;2022-12-13T07:50:33;37.42;;;18.75;;
49860;SDS011;35761;48.826;9.238;2022-12-13T07:53:03;39.10;;;18.58;;
49860;SDS011;35761;48.826;9.238;2022-12-13T07:55:33;37.47;;;18.25;;
49860;SDS011;35761;48.826;9.238;2022-12-13T07:58:03;40.35;;;18.58;;
49860;SDS011;35761;48.826;9.238;2022-12-13T08:00:33;37.03;;;18.33;;
49860;SDS011;35761;48.826;9.238;2022-12-13T08:03:03;38.60;;;18.50;;
49860;SDS011;35761;48.826;9.238;2022-12-13T08:05:34;33.03;;;17.38;;
49860;SDS011;35761;48.826;9.238;2022-12-13T08:08:05;35.15;;;18.02;;
49860;SDS011;35761;48.826;9.238;2022-12-13T08:10:35;30.92;;;16.08;;
49860;SDS011;35761;48.826;9.238;2022-12-13T08:13:04;40.25;;;18.25;;
49860;SDS011;35761;48.826;9.238;2022-12-13T08:15:33;38.08;;;18.60;;
49860;SDS011;35761;48.826;9.238;2022-12-13T08:18:02;38.33;;;18.77;;
49860;SDS011;35761;48.826;9.238;2022-12-13T08:20:30;38.20;;;17.48;;
49860;SDS011;35761;48.826;9.238;2022-12-13T08:23:00;45.58;;;20.05;;
49860;SDS011;35761;48.826;9.238;2022-12-13T08:25:29;40.33;;;19.23;;
49860;SDS011;35761;48.826;9.238;2022-12-13T08:27:58;42.35;;;21.02;;
49860;SDS011;35761;48.826;9.238;2022-12-13T08:30:29;40.22;;;18.15;;
49860;SDS011;35761;48.826;9.238;2022-12-13T08:32:58;34.33;;;16.48;;
49860;SDS011;35761;48.826;9.238;2022-12-13T08:35:31;32.65;;;15.77;;
49860;SDS011;35761;48.826;9.238;2022-12-13T08:38:02;35.17;;;17.05;;
49860;SDS011;35761;48.826;9.238;2022-12-13T08:40:31;32.75;;;16.42;;
49860;SDS011;35761;48.826;9.238;2022-12-13T08:43:00;30.23;;;15.95;;
49860;SDS011;35761;48.826;9.238;2022-12-13T08:45:29;31.58;;;15.38;;
49860;SDS011;35761;48.826;9.238;2022-12-13T08:47:59;33.45;;;17.13;;
49860;SDS011;35761;48.826;9.238;2022-12-13T08:50:29;35.28;;;17.58;;
49860;SDS011;35761;48.826;9.238;2022-12-13T08:52:58;41.85;;;17.23;;
49860;SDS011;35761;48.826;9.238;2022-12-13T08:55:28;33.00;;;16.20;;
49860;SDS011;35761;48.826;9.238;2022-12-13T08:57:58;34.58;;;17.05;;
49860;SDS011;35761;48.826;9.238;2022-12-13T09:00:35;42.53;;;16.80;;
49860;SDS011;35761;48.826;9.238;2022-12-13T09:03:04;36.95;;;18.75;;
49860;SDS011;35761;48.826;9.238;2022-12-13T09:05:35;38.58;;;18.35;;
49860;SDS011;35761;48.826;9.238;2022-12-13T09:08:04;32.63;;;15.65;;
49860;SDS011;35761;48.826;9.238;2022-12-13T09:10:58;31.70;;;15.43;;
49860;SDS011;35761;48.826;9.238;2022-12-13T09:13:45;30.33;;;15.35;;
49860;SDS011;35761;48.826;9.238;2022-12-13T09:16:15;31.38;;;15.70;;
49860;SDS011;35761;48.826;9.238;2022-12-13T09:18:49;36.75;;;15.75;;
49860;SDS011;35761;48.826;9.238;2022-12-13T09:21:21;30.65;;;15.27;;
49860;SDS011;35761;48.826;9.238;2022-12-13T09:23:57;39.10;;;15.50;;
49860;SDS011;35761;48.826;9.238;2022-12-13T09:26:29;31.92;;;14.88;;
49860;SDS011;35761;48.826;9.238;2022-12-13T09:29:03;33.58;;;13.80;;
49860;SDS011;35761;48.826;9.238;2022-12-13T09:31:37;28.02;;;15.10;;
49860;SDS011;35761;48.826;9.238;2022-12-13T09:34:06;29.38;;;14.65;;
49860;SDS011;35761;48.826;9.238;2022-12-13T09:36:35;29.25;;;13.88;;
49860;SDS011;35761;48.826;9.238;2022-12-13T09:39:04;29.15;;;13.52;;
49860;SDS011;35761;48.826;9.238;2022-12-13T09:41:36;29.40;;;13.40;;
49860;SDS011;35761;48.826;9.238;2022-12-13T09:44:10;51.40;;;15.02;;
49860;SDS011;35761;48.826;9.238;2022-12-13T09:47:02;26.95;;;13.95;;
49860;SDS011;35761;48.826;9.238;2022-12-13T09:49:40;25.88;;;13.52;;
49860;SDS011;35761;48.826;9.238;2022-12-13T09:52:20;26.80;;;13.23;;
49860;SDS011;35761;48.826;9.238;2022-12-13T09:54:51;28.98;;;13.57;;
49860;SDS011;35761;48.826;9.238;2022-12-13T09:57:23;28.80;;;13.13;;
49860;SDS011;35761;48.826;9.238;2022-12-13T10:00:00;28.10;;;13.93;;
49860;SDS011;35761;48.826;9.238;2022-12-13T10:02:41;29.63;;;15.13;;
49860;SDS011;35761;48.826;9.238;2022-12-13T10:05:13;28.83;;;13.73;;
49860;SDS011;35761;48.826;9.238;2022-12-13T10:08:03;28.02;;;13.82;;
49860;SDS011;35761;48.826;9.238;2022-12-13T10:10:33;24.95;;;13.13;;
49860;SDS011;35761;48.826;9.238;2022-12-13T10:13:07;26.85;;;12.80;;
49860;SDS011;35761;48.826;9.238;2022-12-13T10:15:42;32.10;;;14.93;;
49860;SDS011;35761;48.826;9.238;2022-12-13T10:18:14;27.25;;;13.23;;
49860;SDS011;35761;48.826;9.238;2022-12-13T10:20:51;27.42;;;14.32;;
49860;SDS011;35761;48.826;9.238;2022-12-13T10:23:21;32.38;;;14.60;;
49860;SDS011;35761;48.826;9.238;2022-12-13T10:26:10;27.77;;;13.70;;
49860;SDS011;35761;48.826;9.238;2022-12-13T10:28:52;27.48;;;14.13;;
49860;SDS011;35761;48.826;9.238;2022-12-13T10:31:28;30.52;;;13.60;;
49860;SDS011;35761;48.826;9.238;2022-12-13T10:33:57;35.53;;;14.90;;
49860;SDS011;35761;48.826;9.238;2022-12-13T10:36:30;24.90;;;12.90;;
49860;SDS011;35761;48.826;9.238;2022-12-13T10:39:00;32.00;;;14.93;;
49860;SDS011;35761;48.826;9.238;2022-12-13T10:41:30;28.65;;;14.18;;
49860;SDS011;35761;48.826;9.238;2022-12-13T10:46:57;33.28;;;14.88;;
49860;SDS011;35761;48.826;9.238;2022-12-13T10:49:33;32.53;;;15.25;;
49860;SDS011;35761;48.826;9.238;2022-12-13T10:52:17;30.38;;;14.75;;
49860;SDS011;35761;48.826;9.238;2022-12-13T10:54:57;33.88;;;14.88;;
49860;SDS011;35761;48.826;9.238;2022-12-13T10:57:29;32.88;;;15.85;;
49860;SDS011;35761;48.826;9.238;2022-12-13T10:59:59;34.65;;;15.98;;
49860;SDS011;35761;48.826;9.238;2022-12-13T11:02:31;29.55;;;14.38;;
49860;SDS011;35761;48.826;9.238;2022-12-13T11:07:52;35.60;;;15.65;;
49860;SDS011;35761;48.826;9.238;2022-12-13T11:10:27;45.58;;;15.43;;
49860;SDS011;35761;48.826;9.238;2022-12-13T11:12:58;29.25;;;14.65;;
49860;SDS011;35761;48.826;9.238;2022-12-13T11:15:30;32.90;;;14.32;;
49860;SDS011;35761;48.826;9.238;2022-12-13T11:18:01;28.00;;;14.13;;
49860;SDS011;35761;48.826;9.238;2022-12-13T11:20:33;30.08;;;14.85;;
49860;SDS011;35761;48.826;9.238;2022-12-13T11:23:03;29.10;;;14.63;;
49860;SDS011;35761;48.826;9.238;2022-12-13T11:25:35;30.48;;;15.05;;
49860;SDS011;35761;48.826;9.238;2022-12-13T11:28:11;28.33;;;14.68;;
49860;SDS011;35761;48.826;9.238;2022-12-13T11:30:57;33.08;;;14.43;;
49860;SDS011;35761;48.826;9.238;2022-12-13T11:33:36;28.48;;;14.45;;
49860;SDS011;35761;48.826;9.238;2022-12-13T11:36:15;25.73;;;13.93;;
49860;SDS011;35761;48.826;9.238;2022-12-13T11:38:52;24.73;;;10.77;;
49860;SDS011;35761;48.826;9.238;2022-12-13T11:41:28;32.63;;;15.45;;
49860;SDS011;35761;48.826;9.238;2022-12-13T11:44:00;28.02;;;13.52;;
49860;SDS011;35761;48.826;9.238;2022-12-13T11:46:37;27.35;;;13.90;;
49860;SDS011;35761;48.826;9.238;2022-12-13T11:49:10;31.70;;;13.60;;
49860;SDS011;35761;48.826;9.238;2022-12-13T11:51:45;30.98;;;14.82;;
49860;SDS011;35761;48.826;9.238;2022-12-13T11:54:18;34.25;;;14.27;;
49860;SDS011;35761;48.826;9.238;2022-12-13T11:56:51;25.75;;;13.23;;
49860;SDS011;35761;48.826;9.238;2022-12-13T11:59:29;25.98;;;13.45;;
49860;SDS011;35761;48.826;9.238;2022-12-13T12:02:10;26.02;;;13.55;;
49860;SDS011;35761;48.826;9.238;2022-12-13T12:04:43;25.25;;;12.80;;
49860;SDS011;35761;48.826;9.238;2022-12-13T12:07:14;32.58;;;14.52;;
49860;SDS011;35761;48.826;9.238;2022-12-13T12:10:01;29.80;;;13.20;;
49860;SDS011;35761;48.826;9.238;2022-12-13T12:12:37;23.25;;;13.57;;
49860;SDS011;35761;48.826;9.238;2022-12-13T12:15:10;29.00;;;13.27;;
49860;SDS011;35761;48.826;9.238;2022-12-13T12:17:43;30.30;;;13.23;;
49860;SDS011;35761;48.826;9.238;2022-12-13T12:20:13;27.05;;;14.07;;
49860;SDS011;35761;48.826;9.238;2022-12-13T12:22:51;27.60;;;14.55;;
49860;SDS011;35761;48.826;9.238;2022-12-13T12:25:26;29.13;;;13.63;;
49860;SDS011;35761;48.826;9.238;2022-12-13T12:28:01;26.65;;;12.93;;
49860;SDS011;35761;48.826;9.238;2022-12-13T12:30:37;28.58;;;13.45;;
49860;SDS011;35761;48.826;9.238;2022-12-13T12:33:12;27.42;;;13.23;;
49860;SDS011;35761;48.826;9.238;2022-12-13T12:35:57;23.65;;;12.88;;
49860;SDS011;35761;48.826;9.238;2022-12-13T12:38:40;27.42;;;13.63;;
49860;SDS011;35761;48.826;9.238;2022-12-13T12:43:53;28.08;;;13.57;;
49860;SDS011;35761;48.826;9.238;2022-12-13T12:46:35;30.40;;;13.25;;
49860;SDS011;35761;48.826;9.238;2022-12-13T12:49:41;27.10;;;12.93;;
49860;SDS011;35761;48.826;9.238;2022-12-13T12:52:41;24.88;;;12.73;;
49860;SDS011;35761;48.826;9.238;2022-12-13T12:55:21;30.75;;;13.18;;
49860;SDS011;35761;48.826;9.238;2022-12-13T12:57:57;27.05;;;13.02;;
49860;SDS011;35761;48.826;9.238;2022-12-13T13:00:29;28.17;;;12.60;;
49860;SDS011;35761;48.826;9.238;2022-12-13T13:03:06;28.17;;;13.15;;
49860;SDS011;35761;48.826;9.238;2022-12-13T13:05:50;28.42;;;12.95;;
49860;SDS011;35761;48.826;9.238;2022-12-13T13:08:29;29.55;;;12.35;;
49860;SDS011;35761;48.826;9.238;2022-12-13T13:11:02;27.13;;;12.98;;
49860;SDS011;35761;48.826;9.238;2022-12-13T13:13:59;35.05;;;15.50;;
49860;SDS011;35761;48.826;9.238;2022-12-13T13:16:36;31.20;;;12.88;;
49860;SDS011;35761;48.826;9.238;2022-12-13T13:22:13;25.48;;;12.07;;
49860;SDS011;35761;48.826;9.238;2022-12-13T13:28:04;22.38;;;11.85;;
49860;SDS011;35761;48.826;9.238;2022-12-13T13:30:57;30.15;;;12.73;;
49860;SDS011;35761;48.826;9.238;2022-12-13T13:33:43;24.17;;;12.60;;
49860;SDS011;35761;48.826;9.238;2022-12-13T13:36:43;26.30;;;11.70;;
49860;SDS011;35761;48.826;9.238;2022-12-13T13:39:15;24.63;;;12.20;;
49860;SDS011;35761;48.826;9.238;2022-12-13T13:41:55;22.70;;;11.75;;
49860;SDS011;35761;48.826;9.238;2022-12-13T13:56:38;21.65;;;11.73;;
49860;SDS011;35761;48.826;9.238;2022-12-13T14:06:07;24.08;;;11.55;;
49860;SDS011;35761;48.826;9.238;2022-12-13T14:09:07;21.77;;;10.80;;
49860;SDS011;35761;48.826;9.238;2022-12-13T14:18:07;21.23;;;9.45;;
49860;SDS011;35761;48.826;9.238;2022-12-13T14:21:01;20.77;;;9.85;;
49860;SDS011;35761;48.826;9.238;2022-12-13T14:26:16;25.27;;;9.93;;
49860;SDS011;35761;48.826;9.238;2022-12-13T14:28:51;19.88;;;9.27;;
49860;SDS011;35761;48.826;9.238;2022-12-13T14:31:23;21.02;;;9.68;;
49860;SDS011;35761;48.826;9.238;2022-12-13T14:34:03;21.02;;;10.43;;
49860;SDS011;35761;48.826;9.238;2022-12-13T14:36:34;19.90;;;10.00;;
49860;SDS011;35761;48.826;9.238;2022-12-13T14:39:05;18.33;;;9.68;;
49860;SDS011;35761;48.826;9.238;2022-12-13T14:41:51;19.83;;;9.95;;
49860;SDS011;35761;48.826;9.238;2022-12-13T14:44:24;17.52;;;9.38;;
49860;SDS011;35761;48.826;9.238;2022-12-13T14:46:55;22.58;;;10.50;;
49860;SDS011;35761;48.826;9.238;2022-12-13T14:49:27;21.75;;;10.27;;
49860;SDS011;35761;48.826;9.238;2022-12-13T14:51:58;21.00;;;11.45;;
49860;SDS011;35761;48.826;9.238;2022-12-13T14:54:30;22.27;;;9.48;;
49860;SDS011;35761;48.826;9.238;2022-12-13T14:57:13;28.02;;;11.60;;
49860;SDS011;35761;48.826;9.238;2022-12-13T14:59:44;17.38;;;9.73;;
49860;SDS011;35761;48.826;9.238;2022-12-13T15:02:17;17.23;;;9.00;;
49860;SDS011;35761;48.826;9.238;2022-12-13T15:04:58;18.70;;;8.23;;
49860;SDS011;35761;48.826;9.238;2022-12-13T15:07:29;17.98;;;8.43;;
49860;SDS011;35761;48.826;9.238;2022-12-13T15:10:00;17.63;;;7.97;;
49860;SDS011;35761;48.826;9.238;2022-12-13T15:12:30;16.42;;;8.68;;
49860;SDS011;35761;48.826;9.238;2022-12-13T15:15:00;19.05;;;8.60;;
49860;SDS011;35761;48.826;9.238;2022-12-13T15:17:31;18.10;;;8.23;;
49860;SDS011;35761;48.826;9.238;2022-12-13T15:20:21;18.55;;;9.07;;
49860;SDS011;35761;48.826;9.238;2022-12-13T15:23:13;13.02;;;7.57;;
49860;SDS011;35761;48.826;9.238;2022-12-13T15:25:54;19.88;;;8.48;;
49860;SDS011;35761;48.826;9.238;2022-12-13T15:28:26;18.42;;;8.57;;
49860;SDS011;35761;48.826;9.238;2022-12-13T15:30:56;21.67;;;8.65;;
49860;SDS011;35761;48.826;9.238;2022-12-13T15:33:27;21.25;;;8.88;;
49860;SDS011;35761;48.826;9.238;2022-12-13T15:36:06;17.63;;;8.95;;
49860;SDS011;35761;48.826;9.238;2022-12-13T15:38:37;21.88;;;9.98;;
49860;SDS011;35761;48.826;9.238;2022-12-13T15:41:12;21.48;;;10.40;;
49860;SDS011;35761;48.826;9.238;2022-12-13T15:43:44;23.20;;;10.35;;
49860;SDS011;35761;48.826;9.238;2022-12-13T15:46:21;18.40;;;9.18;;
49860;SDS011;35761;48.826;9.238;2022-12-13T15:48:51;15.52;;;7.90;;
49860;SDS011;35761;48.826;9.238;2022-12-13T15:51:23;20.15;;;8.27;;
49860;SDS011;35761;48.826;9.238;2022-12-13T15:54:03;21.02;;;8.75;;